Time;durP1;ratioP1;P1;durP2;ratioP2;P2;SDS_P1;SDS_P2;PMS_P1;PMS_P2;Temp;Humidity;BMP_temperature;BMP_pressure;BME280_temperature;BME280_humidity;BME280_pressure;Samples;Min_cycle;Max_cycle;Signal;HPM_P1;HPM_P2
2023/03/13 00:00:33;;;;;;;5.60;3.50;;;22.00;53.80;;;;;;222232;1263;23879;-43
2023/03/13 00:05:56;;;;;;;4.20;3.10;;;22.00;53.40;;;;;;222115;1263;23940;-43
2023/03/13 00:11:05;;;;;;;4.60;3.20;;;21.90;53.20;;;;;;222194;1263;22629;-46
2023/03/13 00:16:12;;;;;;;4.40;3.40;;;22.00;53.30;;;;;;222257;1256;22517;-43
2023/03/13 00:21:18;;;;;;;5.60;2.90;;;21.90;53.60;;;;;;222932;1263;25250;-43
2023/03/13 00:26:23;;;;;;;3.70;3.10;;;22.00;53.40;;;;;;230025;1256;22975;-42
2023/03/13 00:31:31;;;;;;;5.50;3.30;;;22.00;53.50;;;;;;226208;1257;24905;-42
2023/03/13 00:36:35;;;;;;;5.60;3.40;;;22.10;52.70;;;;;;222135;1257;25265;-43
2023/03/13 00:41:39;;;;;;;4.20;3.00;;;22.00;53.20;;;;;;222042;1267;22557;-42
2023/03/13 00:46:43;;;;;;;6.30;3.50;;;22.00;53.60;;;;;;222020;1265;25221;-44
2023/03/13 00:51:47;;;;;;;4.20;2.90;;;22.20;53.10;;;;;;222064;1263;24310;-43
2023/03/13 00:56:51;;;;;;;3.60;2.60;;;22.50;52.40;;;;;;222139;1263;22536;-44
2023/03/13 01:01:55;;;;;;;4.80;2.80;;;22.80;51.70;;;;;;221901;1266;22649;-44
2023/03/13 01:06:59;;;;;;;3.10;2.60;;;23.00;51.20;;;;;;222003;1266;22515;-45
2023/03/13 01:12:03;;;;;;;4.20;2.60;;;23.10;51.00;;;;;;222142;1259;23887;-43
2023/03/13 01:17:08;;;;;;;3.40;2.60;;;23.10;51.10;;;;;;222104;1263;22511;-44
2023/03/13 01:22:12;;;;;;;4.00;2.70;;;23.10;50.70;;;;;;221741;1266;22588;-45
2023/03/13 01:27:16;;;;;;;3.30;2.70;;;23.10;51.30;;;;;;222074;1263;23921;-44
2023/03/13 01:32:20;;;;;;;4.20;2.50;;;23.10;50.80;;;;;;221996;1263;22504;-48
2023/03/13 01:37:24;;;;;;;3.30;2.20;;;23.20;50.70;;;;;;222183;1256;22633;-43
2023/03/13 01:42:29;;;;;;;4.10;2.50;;;23.20;50.70;;;;;;221897;1259;22638;-44
2023/03/13 01:47:34;;;;;;;3.10;2.60;;;23.20;50.70;;;;;;221868;1264;22530;-46
2023/03/13 01:52:50;;;;;;;2.80;2.30;;;23.30;51.00;;;;;;222026;1266;24282;-42
2023/03/13 01:57:59;;;;;;;3.50;2.30;;;23.30;50.60;;;;;;221950;1264;24983;-47
2023/03/13 02:03:08;;;;;;;2.90;2.30;;;23.30;50.60;;;;;;221767;1259;22630;-45
2023/03/13 02:08:37;;;;;;;4.10;2.70;;;23.40;50.50;;;;;;221974;1263;23368;-46
2023/03/13 02:13:42;;;;;;;4.00;2.30;;;23.40;50.50;;;;;;222034;1256;22528;-45
2023/03/13 02:18:47;;;;;;;3.60;2.20;;;23.50;50.00;;;;;;221953;1263;185836;-43
2023/03/13 02:24:06;;;;;;;2.70;2.20;;;23.50;50.40;;;;;;222101;1269;22518;-45
2023/03/13 02:29:17;;;;;;;3.00;2.20;;;23.40;50.30;;;;;;221914;1266;22517;-43
2023/03/13 02:34:29;;;;;;;2.70;1.90;;;23.40;50.10;;;;;;222107;1257;22511;-45
2023/03/13 02:39:34;;;;;;;2.40;2.00;;;23.40;51.10;;;;;;220804;1271;22535;-43
2023/03/13 02:44:40;;;;;;;4.60;2.20;;;23.40;51.40;;;;;;220881;1263;24193;-43
2023/03/13 02:49:44;;;;;;;2.60;2.00;;;23.30;51.10;;;;;;220952;1262;22514;-43
2023/03/13 02:54:51;;;;;;;2.40;1.90;;;23.10;50.90;;;;;;220820;1269;25210;-44
2023/03/13 02:59:57;;;;;;;3.00;2.30;;;23.00;51.90;;;;;;220906;1261;25463;-43
2023/03/13 03:05:01;;;;;;;1.70;1.50;;;22.90;52.10;;;;;;221997;1263;23087;-44
2023/03/13 03:10:07;;;;;;;2.00;1.80;;;22.80;51.80;;;;;;222174;1269;24194;-44
2023/03/13 03:15:12;;;;;;;2.20;2.00;;;22.70;52.00;;;;;;222001;1260;22511;-45
2023/03/13 03:20:19;;;;;;;3.60;2.30;;;22.70;52.90;;;;;;222272;1263;25017;-45
2023/03/13 03:25:24;;;;;;;3.00;2.10;;;22.60;52.20;;;;;;222239;1261;22561;-47
2023/03/13 03:30:29;;;;;;;2.20;2.00;;;22.60;52.30;;;;;;222347;1258;24725;-47
2023/03/13 03:35:37;;;;;;;2.50;1.90;;;22.50;52.50;;;;;;222206;1263;22870;-46
2023/03/13 03:40:42;;;;;;;2.60;2.10;;;22.40;52.50;;;;;;222215;1264;24254;-43
2023/03/13 03:45:46;;;;;;;1.90;1.70;;;22.40;52.60;;;;;;221885;1256;23007;-43
2023/03/13 03:50:51;;;;;;;2.60;2.00;;;22.30;52.70;;;;;;223504;1270;22616;-44
2023/03/13 03:55:56;;;;;;;2.10;1.90;;;22.30;52.60;;;;;;226824;1256;25776;-44
2023/03/13 04:01:00;;;;;;;2.30;1.80;;;22.30;52.40;;;;;;222160;1269;22507;-51
2023/03/13 04:06:06;;;;;;;2.60;2.00;;;22.30;52.60;;;;;;222359;1264;24067;-43
2023/03/13 04:11:11;;;;;;;2.20;2.00;;;22.10;52.80;;;;;;222158;1270;25492;-44
2023/03/13 04:16:19;;;;;;;2.30;1.80;;;22.10;53.40;;;;;;222325;1269;22662;-44
2023/03/13 04:21:24;;;;;;;3.10;1.80;;;22.00;53.10;;;;;;222212;1266;24184;-47
2023/03/13 04:26:33;;;;;;;2.20;1.80;;;22.00;53.20;;;;;;222256;1263;22508;-43
2023/03/13 04:31:38;;;;;;;2.20;2.00;;;21.90;53.30;;;;;;222372;1269;24049;-44
2023/03/13 04:36:56;;;;;;;1.70;1.60;;;22.00;53.30;;;;;;222374;1269;22536;-44
2023/03/13 04:42:33;;;;;;;2.30;1.80;;;21.90;53.20;;;;;;221789;1263;26017;-44
2023/03/13 04:47:59;;;;;;;1.80;1.70;;;22.00;53.20;;;;;;222212;1263;22530;-45
2023/03/13 04:53:22;;;;;;;1.90;1.80;;;22.30;52.90;;;;;;222161;1263;22507;-43
2023/03/13 04:59:02;;;;;;;3.70;1.70;;;22.50;52.60;;;;;;221567;1270;22511;-44
2023/03/13 05:04:25;;;;;;;1.70;1.60;;;22.70;52.10;;;;;;222025;1266;22627;-43
2023/03/13 05:09:55;;;;;;;2.00;1.40;;;23.00;51.40;;;;;;221972;1266;22600;-47
2023/03/13 05:15:38;;;;;;;2.50;1.70;;;23.10;51.00;;;;;;222075;1257;23935;-45
2023/03/13 05:21:08;;;;;;;1.50;1.30;;;23.20;50.80;;;;;;222535;1266;22634;-44
2023/03/13 05:26:27;;;;;;;1.50;1.40;;;23.10;50.80;;;;;;222180;1264;24372;-42
2023/03/13 05:31:50;;;;;;;1.70;1.50;;;23.10;50.80;;;;;;222282;1263;22756;-46
2023/03/13 05:37:17;;;;;;;2.70;1.70;;;23.20;50.70;;;;;;222042;1263;24047;-42
2023/03/13 05:42:42;;;;;;;2.80;1.60;;;23.20;50.70;;;;;;222305;1270;22534;-43
2023/03/13 05:48:18;;;;;;;1.50;1.40;;;23.30;50.50;;;;;;222296;1257;22512;-44
2023/03/13 05:53:58;;;;;;;1.70;1.60;;;23.40;50.40;;;;;;221429;1266;22507;-45
2023/03/13 05:59:22;;;;;;;1.60;1.30;;;23.40;50.30;;;;;;222172;1270;22531;-44
2023/03/13 06:04:47;;;;;;;1.70;1.40;;;23.50;50.20;;;;;;221919;1269;22611;-43
2023/03/13 06:09:51;;;;;;;2.00;1.40;;;23.60;50.20;;;;;;222217;1269;22511;-44
2023/03/13 06:14:55;;;;;;;1.20;1.10;;;23.60;49.70;;;;;;222162;1261;22605;-44
2023/03/13 06:20:18;;;;;;;1.80;1.50;;;23.60;50.40;;;;;;222112;1263;22513;-43
2023/03/13 06:25:24;;;;;;;1.20;1.10;;;23.60;50.00;;;;;;222522;1264;22602;-45
2023/03/13 06:30:28;;;;;;;1.60;1.50;;;23.60;50.00;;;;;;222143;1269;22641;-43
2023/03/13 06:35:32;;;;;;;1.50;1.40;;;23.60;50.00;;;;;;222355;1263;24251;-42
2023/03/13 06:40:52;;;;;;;1.90;1.50;;;23.70;50.00;;;;;;222226;1269;24327;-44
2023/03/13 06:45:56;;;;;;;1.40;1.30;;;23.60;51.10;;;;;;222191;1264;22522;-46
2023/03/13 06:51:00;;;;;;;1.40;1.30;;;23.60;51.50;;;;;;222040;1264;25258;-44
2023/03/13 06:56:05;;;;;;;1.60;1.50;;;23.40;51.20;;;;;;222445;1264;22509;-40
2023/03/13 07:01:11;;;;;;;2.40;1.50;;;23.10;52.30;;;;;;222329;1263;24354;-41
2023/03/13 07:06:16;;;;;;;6.50;1.80;;;23.00;52.20;;;;;;222312;1266;25198;-38
2023/03/13 07:11:20;;;;;;;5.60;2.10;;;23.00;52.50;;;;;;222056;1266;22771;-41
2023/03/13 07:16:24;;;;;;;5.60;1.80;;;23.00;52.40;;;;;;222078;1265;22712;-40
2023/03/13 07:21:28;;;;;;;4.50;1.90;;;22.90;52.90;;;;;;222280;1256;24096;-39
2023/03/13 07:26:32;;;;;;;2.80;1.90;;;22.80;53.00;;;;;;222194;1257;22508;-38
2023/03/13 07:31:38;;;;;;;4.80;1.90;;;22.80;53.10;;;;;;221893;1266;24422;-39
2023/03/13 07:36:42;;;;;;;3.20;1.60;;;22.80;52.80;;;;;;221996;1266;24229;-40
2023/03/13 07:41:46;;;;;;;6.60;1.90;;;22.80;53.10;;;;;;221713;1253;24040;-39
2023/03/13 07:46:52;;;;;;;8.40;1.70;;;22.80;53.10;;;;;;221891;1267;23837;-40
2023/03/13 07:51:56;;;;;;;3.50;1.90;;;23.00;52.70;;;;;;221994;1264;25305;-38
2023/03/13 07:57:01;;;;;;;7.50;2.10;;;22.80;53.00;;;;;;221983;1271;24310;-41
2023/03/13 08:02:05;;;;;;;8.40;1.80;;;22.80;53.60;;;;;;221860;1266;22559;-40
2023/03/13 08:07:10;;;;;;;8.80;1.80;;;22.70;54.30;;;;;;221969;1270;22546;-40
2023/03/13 08:12:14;;;;;;;6.10;2.20;;;22.70;53.50;;;;;;222105;1269;25691;-40
2023/03/13 08:17:20;;;;;;;6.50;1.90;;;22.50;53.80;;;;;;221999;1270;24362;-39
2023/03/13 08:22:26;;;;;;;6.80;1.90;;;22.50;53.30;;;;;;221947;1269;24079;-38
2023/03/13 08:27:30;;;;;;;5.80;1.80;;;22.40;53.30;;;;;;222271;1264;26497;-40
2023/03/13 08:32:35;;;;;;;6.40;2.10;;;22.40;53.30;;;;;;221756;1266;24245;-40
2023/03/13 08:37:38;;;;;;;5.40;2.00;;;22.40;53.30;;;;;;221738;1264;22517;-39
2023/03/13 08:42:42;;;;;;;8.10;2.00;;;22.40;53.60;;;;;;221945;1260;23927;-38
2023/03/13 08:47:52;;;;;;;7.20;1.70;;;22.30;53.30;;;;;;222068;1266;22548;-38
2023/03/13 08:52:56;;;;;;;3.70;1.80;;;22.30;53.20;;;;;;221834;1270;22538;-39
2023/03/13 08:58:03;;;;;;;11.80;2.40;;;22.30;53.30;;;;;;221921;1257;22531;-43
2023/03/13 09:03:07;;;;;;;8.60;2.70;;;22.30;53.50;;;;;;221795;1270;22620;-40
2023/03/13 09:08:11;;;;;;;4.80;2.30;;;22.30;53.60;;;;;;222016;1259;22563;-42
2023/03/13 09:13:15;;;;;;;3.00;1.80;;;22.20;53.80;;;;;;222134;1257;25323;-42
2023/03/13 09:18:19;;;;;;;3.70;2.20;;;22.20;54.10;;;;;;221842;1267;23924;-41
2023/03/13 09:23:24;;;;;;;11.80;3.00;;;22.20;54.70;;;;;;222047;1267;25328;-42
2023/03/13 09:28:28;;;;;;;4.60;2.10;;;22.20;54.90;;;;;;222087;1270;24035;-40
2023/03/13 09:33:32;;;;;;;5.50;2.10;;;22.20;54.80;;;;;;221888;1266;22640;-41
2023/03/13 09:38:38;;;;;;;8.20;1.90;;;22.10;55.10;;;;;;221846;1264;22633;-40
2023/03/13 09:44:15;;;;;;;5.90;2.40;;;22.10;55.00;;;;;;222085;1264;25214;-41
2023/03/13 09:49:29;;;;;;;4.90;2.00;;;22.10;55.00;;;;;;221992;1264;25278;-42
2023/03/13 09:55:11;;;;;;;7.80;2.50;;;22.10;55.50;;;;;;222076;1264;22757;-53
2023/03/13 10:00:38;;;;;;;6.00;3.10;;;22.20;55.30;;;;;;221610;1267;22750;-56
2023/03/13 10:05:47;;;;;;;10.50;3.30;;;22.00;55.10;;;;;;222190;1264;22507;-58
2023/03/13 10:11:09;;;;;;;6.20;2.90;;;22.10;55.70;;;;;;222284;1269;25321;-57
2023/03/13 10:16:13;;;;;;;;;;;22.20;56.30;;;;;;222226;1267;22500;-53
2023/03/13 10:21:22;;;;;;;10.20;4.70;;;22.30;56.40;;;;;;222280;1256;24247;-53
2023/03/13 10:26:29;;;;;;;11.70;4.00;;;22.10;56.80;;;;;;222290;1266;22511;-54
2023/03/13 10:31:35;;;;;;;15.20;4.10;;;22.20;56.90;;;;;;222171;1263;25334;-45
2023/03/13 10:43:53;;;;;;;12.70;4.10;;;22.10;56.50;;;;;;222053;1263;25674;-57
2023/03/13 10:49:01;;;;;;;14.40;3.90;;;22.30;56.60;;;;;;222113;1257;25357;-59
2023/03/13 10:54:25;;;;;;;20.70;5.10;;;22.20;56.80;;;;;;222204;1263;22522;-53
2023/03/13 10:59:30;;;;;;;15.00;4.70;;;22.20;56.10;;;;;;222154;1257;22531;-55
2023/03/13 11:04:37;;;;;;;13.50;4.70;;;22.10;56.00;;;;;;222045;1263;23891;-59
2023/03/13 11:09:41;;;;;;;8.60;4.30;;;22.10;55.90;;;;;;222221;1254;22510;-53
2023/03/13 11:14:45;;;;;;;12.70;4.70;;;22.20;57.50;;;;;;222189;1264;24082;-56
2023/03/13 11:20:01;;;;;;;10.80;4.00;;;22.20;58.50;;;;;;222476;1264;23037;-59
2023/03/13 11:25:23;;;;;;;11.50;4.00;;;22.30;59.40;;;;;;222344;1264;24186;-54
2023/03/13 11:30:59;;;;;;;18.00;5.70;;;22.10;59.80;;;;;;222181;1257;22518;-56
2023/03/13 11:36:15;;;;;;;12.00;3.50;;;22.10;58.90;;;;;;222152;1266;25456;-54
2023/03/13 11:41:38;;;;;;;8.50;3.90;;;22.10;58.30;;;;;;222270;1264;23334;-49
2023/03/13 11:47:13;;;;;;;17.40;3.30;;;22.20;58.00;;;;;;222161;1263;22511;-52
2023/03/13 11:52:29;;;;;;;15.80;3.60;;;22.20;57.90;;;;;;222239;1264;22535;-52
2023/03/13 11:57:51;;;;;;;13.60;3.10;;;22.10;58.00;;;;;;222042;1263;22547;-54
2023/03/13 12:03:10;;;;;;;15.30;4.00;;;22.20;58.60;;;;;;222202;1264;25450;-52
2023/03/13 12:08:20;;;;;;;17.20;3.30;;;22.20;58.50;;;;;;222143;1257;22508;-54
2023/03/13 12:13:36;;;;;;;11.30;2.60;;;22.20;58.20;;;;;;222259;1263;25469;-55
2023/03/13 12:18:43;;;;;;;8.90;3.30;;;22.10;58.30;;;;;;222184;1266;25328;-56
2023/03/13 12:24:06;;;;;;;24.20;5.10;;;22.10;58.10;;;;;;222120;1264;24044;-52
2023/03/13 12:29:48;;;;;;;8.90;3.00;;;22.10;58.50;;;;;;222134;1263;25485;-51
2023/03/13 12:35:17;;;;;;;9.70;3.50;;;22.20;57.90;;;;;;222118;1259;22516;-53
2023/03/13 12:40:43;;;;;;;10.20;3.60;;;22.20;57.40;;;;;;221035;1259;22534;-53
2023/03/13 12:45:59;;;;;;;11.60;3.10;;;22.10;57.10;;;;;;220923;1267;24503;-51
2023/03/13 12:51:18;;;;;;;10.30;3.10;;;22.20;60.00;;;;;;220410;1263;26522;-51
2023/03/13 12:56:35;;;;;;;10.10;3.20;;;22.10;60.90;;;;;;220720;1261;25317;-54
2023/03/13 13:01:43;;;;;;;9.90;2.90;;;22.10;60.80;;;;;;220785;1268;22535;-48
2023/03/13 13:07:05;;;;;;;7.40;2.70;;;22.00;61.00;;;;;;221104;1257;22527;-51
2023/03/13 13:12:21;;;;;;;11.50;2.90;;;22.10;60.80;;;;;;222040;1256;25437;-59
2023/03/13 13:17:32;;;;;;;10.80;3.10;;;22.20;62.30;;;;;;221970;1256;23934;-60
2023/03/13 13:22:35;;;;;;;5.80;2.60;;;22.20;64.40;;;;;;221896;1263;22521;-55
2023/03/13 13:27:48;;;;;;;10.60;3.30;;;22.20;66.80;;;;;;222023;1263;24630;-56
2023/03/13 13:33:19;;;;;;;6.40;2.50;;;22.30;68.00;;;;;;222019;1264;22541;-55
2023/03/13 13:38:35;;;;;;;6.60;2.60;;;22.30;69.10;;;;;;222011;1263;23888;-54
2023/03/13 13:43:44;;;;;;;5.80;2.50;;;22.40;70.00;;;;;;221784;1260;22511;-57
2023/03/13 13:49:13;;;;;;;13.80;2.70;;;22.30;70.30;;;;;;221601;1264;25437;-52
2023/03/13 13:54:17;;;;;;;7.10;3.40;;;22.30;69.30;;;;;;221781;1264;23923;-54
2023/03/13 13:59:25;;;;;;;8.30;2.50;;;22.20;68.60;;;;;;226760;1258;22587;-55
2023/03/13 14:04:38;;;;;;;5.90;2.90;;;22.40;67.40;;;;;;229933;1263;23095;-57
2023/03/13 14:09:46;;;;;;;8.30;2.50;;;22.40;66.40;;;;;;222356;1256;25327;-55
2023/03/13 14:15:13;;;;;;;5.80;2.10;;;22.40;65.50;;;;;;222341;1263;24878;-55
2023/03/13 14:20:26;;;;;;;3.80;2.20;;;22.10;65.40;;;;;;221769;1263;404201;-59
2023/03/13 14:26:16;;;;;;;5.50;2.90;;;22.10;65.00;;;;;;222030;1257;25316;-57
2023/03/13 14:31:32;;;;;;;4.50;2.00;;;22.00;64.90;;;;;;220640;1272;25242;-59
2023/03/13 14:36:57;;;;;;;9.60;2.40;;;21.90;64.20;;;;;;220696;1264;25715;-58
2023/03/13 14:42:19;;;;;;;5.80;2.50;;;21.90;63.60;;;;;;220677;1263;25418;-53
2023/03/13 14:47:30;;;;;;;6.80;2.10;;;21.90;63.60;;;;;;220680;1263;25335;-55
2023/03/13 14:52:34;;;;;;;3.50;2.40;;;21.90;63.00;;;;;;220772;1264;22666;-58
2023/03/13 14:57:54;;;;;;;2.90;2.00;;;21.80;62.70;;;;;;220854;1275;23897;-39
2023/03/13 15:03:15;;;;;;;3.80;2.00;;;21.80;62.60;;;;;;220722;1264;22572;-40
2023/03/13 15:08:23;;;;;;;4.20;2.10;;;21.80;62.70;;;;;;221784;1254;22561;-41
2023/03/13 15:13:35;;;;;;;4.20;2.20;;;21.80;62.40;;;;;;222528;1247;22514;-39
2023/03/13 15:18:40;;;;;;;4.70;2.40;;;21.80;62.30;;;;;;222061;1257;24354;-42
2023/03/13 15:24:12;;;;;;;4.40;2.70;;;21.90;64.00;;;;;;222169;1257;22651;-41
2023/03/13 15:29:17;;;;;;;4.30;2.00;;;21.90;65.60;;;;;;222083;1257;24233;-38
2023/03/13 15:34:24;;;;;;;2.80;2.00;;;21.90;65.10;;;;;;222120;1247;22546;-40
2023/03/13 15:39:29;;;;;;;3.50;2.20;;;21.90;65.10;;;;;;222087;1256;24361;-41
2023/03/13 15:44:36;;;;;;;6.60;2.30;;;21.90;65.60;;;;;;222098;1256;22652;-39
2023/03/13 15:49:40;;;;;;;4.60;1.90;;;21.80;65.80;;;;;;222166;1256;22510;-37
2023/03/13 15:54:45;;;;;;;5.80;2.70;;;21.90;65.40;;;;;;222245;1257;25400;-36
2023/03/13 15:59:50;;;;;;;4.10;2.30;;;21.90;64.80;;;;;;222331;1263;22543;-36
2023/03/13 16:04:54;;;;;;;8.00;2.90;;;21.90;61.80;;;;;;222106;1256;24148;-37
2023/03/13 16:09:58;;;;;;;2.70;2.00;;;21.60;62.50;;;;;;222080;1263;25377;-37
2023/03/13 16:15:04;;;;;;;7.50;2.30;;;22.10;62.50;;;;;;222017;1263;23920;-38
2023/03/13 16:20:20;;;;;;;5.10;2.10;;;22.70;62.80;;;;;;222203;1256;22563;-36
2023/03/13 16:25:24;;;;;;;6.40;2.20;;;22.80;62.20;;;;;;222286;1256;25336;-37
2023/03/13 16:30:31;;;;;;;3.30;2.20;;;22.90;62.20;;;;;;222243;1256;22593;-38
2023/03/13 16:35:35;;;;;;;2.80;2.10;;;23.00;63.20;;;;;;222220;1263;22573;-39
2023/03/13 16:40:40;;;;;;;4.30;2.40;;;23.10;64.50;;;;;;222227;1247;25903;-38
2023/03/13 16:45:45;;;;;;;2.10;1.90;;;23.20;63.50;;;;;;222034;1256;22563;-37
2023/03/13 16:50:49;;;;;;;5.30;2.10;;;23.10;63.30;;;;;;222108;1263;22683;-40
2023/03/13 16:55:54;;;;;;;3.40;2.20;;;23.00;63.40;;;;;;222166;1263;22779;-42
2023/03/13 17:01:03;;;;;;;7.90;2.80;;;22.90;63.20;;;;;;221738;1247;22646;-40
2023/03/13 17:06:14;;;;;;;5.30;2.30;;;22.90;63.50;;;;;;221944;1253;25459;-43
2023/03/13 17:11:22;;;;;;;7.60;2.30;;;22.90;63.10;;;;;;222140;1263;24236;-40
2023/03/13 17:16:32;;;;;;;4.00;2.30;;;22.80;63.00;;;;;;221995;1256;24198;-38
2023/03/13 17:21:37;;;;;;;4.20;2.20;;;22.80;62.80;;;;;;221969;1256;24433;-41
2023/03/13 17:26:41;;;;;;;3.70;1.90;;;22.90;62.60;;;;;;222113;1263;25435;-44
2023/03/13 17:31:45;;;;;;;4.60;2.20;;;22.90;62.50;;;;;;221930;1260;24334;-40
2023/03/13 17:36:51;;;;;;;2.30;1.90;;;22.80;62.20;;;;;;222116;1263;22518;-39
2023/03/13 17:41:59;;;;;;;4.30;2.20;;;22.70;62.50;;;;;;222035;1263;22514;-44
2023/03/13 17:47:11;;;;;;;4.60;2.70;;;22.70;62.10;;;;;;222115;1263;25269;-39
2023/03/13 17:52:16;;;;;;;3.70;2.70;;;22.70;61.90;;;;;;222151;1256;22544;-41
2023/03/13 17:57:22;;;;;;;5.90;2.60;;;22.60;61.80;;;;;;221858;1247;22789;-40
2023/03/13 18:02:29;;;;;;;4.60;2.90;;;22.60;61.70;;;;;;222561;1250;25268;-40
2023/03/13 18:07:34;;;;;;;3.60;2.30;;;22.50;61.70;;;;;;222128;1254;23584;-40
2023/03/13 18:12:39;;;;;;;3.80;2.30;;;22.50;61.80;;;;;;221973;1260;22525;-39
2023/03/13 18:17:45;;;;;;;5.10;2.50;;;22.60;61.50;;;;;;222128;1256;25268;-40
2023/03/13 18:22:51;;;;;;;12.80;2.60;;;22.50;61.40;;;;;;222042;1263;24196;-37
2023/03/13 18:27:58;;;;;;;6.10;2.20;;;22.50;61.20;;;;;;221938;1256;23022;-40
2023/03/13 18:33:03;;;;;;;8.90;2.70;;;22.50;61.60;;;;;;221858;1256;22517;-39
2023/03/13 18:38:12;;;;;;;4.70;2.40;;;22.50;61.10;;;;;;221935;1256;22510;-40
2023/03/13 18:43:18;;;;;;;6.70;2.70;;;22.50;61.50;;;;;;221973;1257;24341;-40
2023/03/13 18:48:24;;;;;;;4.60;2.30;;;22.30;61.10;;;;;;222025;1263;24173;-44
2023/03/13 18:53:30;;;;;;;2.30;2.00;;;22.30;61.10;;;;;;222113;1263;22548;-38
2023/03/13 18:58:36;;;;;;;2.80;2.50;;;22.30;60.90;;;;;;221895;1253;22659;-38
2023/03/13 19:03:41;;;;;;;10.30;2.90;;;22.30;61.00;;;;;;222077;1263;22508;-48
2023/03/13 19:08:49;;;;;;;5.40;2.60;;;22.30;61.80;;;;;;222211;1263;24196;-51
2023/03/13 19:13:59;;;;;;;8.50;2.50;;;22.30;61.10;;;;;;222104;1256;24176;-49
2023/03/13 19:19:19;;;;;;;6.80;2.70;;;22.30;61.10;;;;;;222159;1263;26482;-53
2023/03/13 19:24:26;;;;;;;8.90;2.80;;;22.30;61.20;;;;;;222218;1260;22514;-49
2023/03/13 19:29:35;;;;;;;5.90;2.70;;;22.20;61.40;;;;;;221879;1263;24231;-52
2023/03/13 19:34:41;;;;;;;9.60;2.50;;;22.40;60.90;;;;;;222008;1263;22517;-54
2023/03/13 19:39:48;;;;;;;7.20;2.40;;;22.30;61.30;;;;;;222033;1256;22687;-50
2023/03/13 19:44:57;;;;;;;4.20;2.70;;;22.20;60.80;;;;;;221738;1260;22524;-52
2023/03/13 19:50:14;;;;;;;5.80;2.80;;;22.10;61.40;;;;;;221942;1254;22520;-50
2023/03/13 19:55:20;;;;;;;4.30;2.90;;;22.10;62.10;;;;;;221963;1262;25496;-45
2023/03/13 20:00:28;;;;;;;5.90;2.60;;;22.10;61.10;;;;;;222181;1263;24641;-54
2023/03/13 20:05:35;;;;;;;5.10;2.40;;;22.10;60.80;;;;;;222090;1257;22591;-52
2023/03/13 20:10:40;;;;;;;5.90;2.60;;;22.00;60.70;;;;;;222081;1256;25711;-52
2023/03/13 20:15:47;;;;;;;7.20;2.40;;;22.00;60.60;;;;;;222168;1254;23876;-51
2023/03/13 20:20:54;;;;;;;5.40;2.50;;;22.00;60.70;;;;;;222176;1263;24327;-54
2023/03/13 20:26:08;;;;;;;6.50;2.80;;;22.10;61.80;;;;;;222288;1263;24208;-51
2023/03/13 20:31:18;;;;;;;8.10;2.70;;;22.00;61.60;;;;;;222110;1263;23117;-49
2023/03/13 20:36:28;;;;;;;8.80;3.10;;;22.00;61.30;;;;;;222141;1263;25338;-49
2023/03/13 20:41:34;;;;;;;8.80;3.00;;;22.10;63.80;;;;;;221678;1254;23006;-48
2023/03/13 20:46:40;;;;;;;11.50;2.70;;;21.90;62.90;;;;;;221964;1262;24180;-51
2023/03/13 20:51:46;;;;;;;8.90;2.80;;;21.80;62.70;;;;;;222168;1257;24190;-49
2023/03/13 20:56:54;;;;;;;8.50;2.80;;;21.80;62.60;;;;;;221791;1263;22534;-50
2023/03/13 21:02:00;;;;;;;7.60;2.70;;;21.80;62.40;;;;;;222127;1263;22517;-50
2023/03/13 21:07:09;;;;;;;8.20;3.30;;;21.70;62.70;;;;;;222051;1263;24299;-46
2023/03/13 21:12:16;;;;;;;10.70;3.00;;;21.70;61.80;;;;;;222074;1256;22527;-50
2023/03/13 21:17:20;;;;;;;8.60;2.60;;;21.80;61.50;;;;;;221862;1264;22533;-48
2023/03/13 21:22:29;;;;;;;9.70;3.00;;;22.00;61.70;;;;;;222151;1267;22665;-52
2023/03/13 21:27:34;;;;;;;13.00;2.90;;;21.80;61.00;;;;;;223303;1263;22773;-54
2023/03/13 21:32:39;;;;;;;13.40;3.10;;;21.80;60.80;;;;;;221800;1259;22634;-53
2023/03/13 21:37:44;;;;;;;5.20;2.40;;;21.80;60.80;;;;;;222065;1263;22527;-53
2023/03/13 21:42:48;;;;;;;11.00;2.60;;;21.70;60.70;;;;;;222318;1263;23011;-52
2023/03/13 21:47:55;;;;;;;11.60;3.60;;;21.70;61.00;;;;;;222232;1263;24086;-54
2023/03/13 21:52:59;;;;;;;10.10;3.60;;;21.70;66.10;;;;;;221923;1263;23832;-53
2023/03/13 21:58:06;;;;;;;16.70;4.10;;;21.70;66.10;;;;;;221941;1263;22633;-52
2023/03/13 22:03:14;;;;;;;6.60;2.60;;;21.70;66.60;;;;;;222395;1260;23945;-51
2023/03/13 22:08:28;;;;;;;11.20;3.50;;;21.70;66.30;;;;;;221998;1260;22632;-52
2023/03/13 22:13:37;;;;;;;10.20;3.00;;;21.70;65.90;;;;;;222087;1264;25280;-54
2023/03/13 22:18:47;;;;;;;14.70;3.30;;;21.70;65.90;;;;;;221710;1257;25312;-51
2023/03/13 22:23:56;;;;;;;13.40;3.00;;;21.60;65.60;;;;;;222166;1262;24515;-52
2023/03/13 22:29:03;;;;;;;7.30;3.00;;;21.60;65.40;;;;;;221982;1266;22570;-53
2023/03/13 22:34:07;;;;;;;6.90;3.00;;;21.70;65.60;;;;;;221872;1264;22523;-50
2023/03/13 22:39:11;;;;;;;7.40;3.10;;;21.60;65.20;;;;;;221914;1264;22616;-55
2023/03/13 22:44:15;;;;;;;10.30;3.40;;;21.60;65.00;;;;;;221849;1266;23949;-53
2023/03/13 22:49:19;;;;;;;18.00;5.50;;;21.60;65.00;;;;;;222066;1259;24367;-53
2023/03/13 22:54:24;;;;;;;11.70;5.00;;;21.60;66.00;;;;;;222019;1265;22512;-53
2023/03/13 22:59:28;;;;;;;10.40;4.50;;;21.60;67.30;;;;;;222026;1256;24330;-53
2023/03/13 23:04:32;;;;;;;12.30;4.70;;;21.50;67.70;;;;;;222082;1256;24181;-53
2023/03/13 23:09:36;;;;;;;9.60;4.20;;;21.60;67.00;;;;;;222031;1250;23912;-54
2023/03/13 23:14:40;;;;;;;8.70;4.10;;;21.60;66.20;;;;;;221852;1266;22799;-52
2023/03/13 23:19:45;;;;;;;12.60;4.50;;;21.60;65.70;;;;;;222098;1259;22634;-53
2023/03/13 23:24:51;;;;;;;7.70;3.80;;;21.70;65.50;;;;;;222082;1263;22519;-51
2023/03/13 23:29:55;;;;;;;9.20;3.80;;;21.60;65.90;;;;;;221929;1251;23921;-50
2023/03/13 23:35:02;;;;;;;6.70;3.80;;;21.60;65.40;;;;;;222018;1256;24243;-52
2023/03/13 23:40:09;;;;;;;8.20;3.90;;;21.60;64.90;;;;;;221981;1256;22701;-52
2023/03/13 23:45:13;;;;;;;8.50;4.10;;;21.60;64.80;;;;;;222147;1256;24234;-52
2023/03/13 23:50:17;;;;;;;8.50;4.20;;;21.70;64.40;;;;;;222101;1257;22575;-54
2023/03/13 23:55:21;;;;;;;7.80;3.80;;;21.60;64.40;;;;;;221659;1257;22515;-51
